sensor_id;sensor_type;location;lat;lon;timestamp;P1;durP1;ratioP1;P2;durP2;ratioP2
17283;SDS011;8760;52.248;20.952;2023-05-07T00:00:44;4.33;;;3.33;;
17283;SDS011;8760;52.248;20.952;2023-05-07T00:03:11;5.27;;;3.50;;
17283;SDS011;8760;52.248;20.952;2023-05-07T00:05:38;5.33;;;3.53;;
17283;SDS011;8760;52.248;20.952;2023-05-07T00:08:07;3.97;;;3.50;;
17283;SDS011;8760;52.248;20.952;2023-05-07T00:10:34;5.30;;;3.30;;
17283;SDS011;8760;52.248;20.952;2023-05-07T00:13:01;5.87;;;3.40;;
17283;SDS011;8760;52.248;20.952;2023-05-07T00:15:28;5.77;;;3.53;;
17283;SDS011;8760;52.248;20.952;2023-05-07T00:17:55;5.53;;;3.23;;
17283;SDS011;8760;52.248;20.952;2023-05-07T00:20:23;5.83;;;3.47;;
17283;SDS011;8760;52.248;20.952;2023-05-07T00:22:50;4.90;;;3.87;;
17283;SDS011;8760;52.248;20.952;2023-05-07T00:25:18;4.87;;;3.50;;
17283;SDS011;8760;52.248;20.952;2023-05-07T00:27:45;5.97;;;3.90;;
17283;SDS011;8760;52.248;20.952;2023-05-07T00:30:12;6.10;;;3.70;;
17283;SDS011;8760;52.248;20.952;2023-05-07T00:32:39;4.93;;;3.43;;
17283;SDS011;8760;52.248;20.952;2023-05-07T00:35:07;6.47;;;3.47;;
17283;SDS011;8760;52.248;20.952;2023-05-07T00:37:34;8.07;;;3.57;;
17283;SDS011;8760;52.248;20.952;2023-05-07T00:40:01;5.37;;;3.60;;
17283;SDS011;8760;52.248;20.952;2023-05-07T00:42:33;6.13;;;3.57;;
17283;SDS011;8760;52.248;20.952;2023-05-07T00:45:00;4.73;;;3.80;;
17283;SDS011;8760;52.248;20.952;2023-05-07T00:47:27;3.63;;;3.17;;
17283;SDS011;8760;52.248;20.952;2023-05-07T00:49:53;5.03;;;3.20;;
17283;SDS011;8760;52.248;20.952;2023-05-07T00:52:20;4.10;;;3.13;;
17283;SDS011;8760;52.248;20.952;2023-05-07T00:54:51;3.73;;;2.90;;
17283;SDS011;8760;52.248;20.952;2023-05-07T00:57:18;4.67;;;3.23;;
17283;SDS011;8760;52.248;20.952;2023-05-07T00:59:48;4.77;;;3.10;;
17283;SDS011;8760;52.248;20.952;2023-05-07T01:02:16;6.47;;;3.20;;
17283;SDS011;8760;52.248;20.952;2023-05-07T01:04:43;4.27;;;3.27;;
17283;SDS011;8760;52.248;20.952;2023-05-07T01:07:10;3.37;;;3.00;;
17283;SDS011;8760;52.248;20.952;2023-05-07T01:09:37;4.23;;;3.27;;
17283;SDS011;8760;52.248;20.952;2023-05-07T01:12:04;5.33;;;3.40;;
17283;SDS011;8760;52.248;20.952;2023-05-07T01:14:32;6.00;;;3.67;;
17283;SDS011;8760;52.248;20.952;2023-05-07T01:17:01;5.67;;;3.47;;
17283;SDS011;8760;52.248;20.952;2023-05-07T01:19:28;5.23;;;3.60;;
17283;SDS011;8760;52.248;20.952;2023-05-07T01:21:57;3.33;;;3.00;;
17283;SDS011;8760;52.248;20.952;2023-05-07T01:24:31;4.80;;;3.03;;
17283;SDS011;8760;52.248;20.952;2023-05-07T01:26:58;3.27;;;2.97;;
17283;SDS011;8760;52.248;20.952;2023-05-07T01:29:26;3.87;;;3.27;;
17283;SDS011;8760;52.248;20.952;2023-05-07T01:31:53;3.80;;;3.03;;
17283;SDS011;8760;52.248;20.952;2023-05-07T01:34:23;4.40;;;3.00;;
17283;SDS011;8760;52.248;20.952;2023-05-07T01:36:52;4.30;;;2.90;;
17283;SDS011;8760;52.248;20.952;2023-05-07T01:39:20;4.67;;;3.10;;
17283;SDS011;8760;52.248;20.952;2023-05-07T01:41:49;5.43;;;2.83;;
17283;SDS011;8760;52.248;20.952;2023-05-07T01:44:16;5.13;;;2.90;;
17283;SDS011;8760;52.248;20.952;2023-05-07T01:46:45;4.37;;;2.90;;
17283;SDS011;8760;52.248;20.952;2023-05-07T01:49:14;3.90;;;3.03;;
17283;SDS011;8760;52.248;20.952;2023-05-07T01:51:41;3.93;;;2.93;;
17283;SDS011;8760;52.248;20.952;2023-05-07T01:54:08;4.37;;;3.13;;
17283;SDS011;8760;52.248;20.952;2023-05-07T01:56:35;3.63;;;3.00;;
17283;SDS011;8760;52.248;20.952;2023-05-07T01:59:04;4.67;;;3.07;;
17283;SDS011;8760;52.248;20.952;2023-05-07T02:01:31;4.10;;;2.97;;
17283;SDS011;8760;52.248;20.952;2023-05-07T02:03:58;3.73;;;2.70;;
17283;SDS011;8760;52.248;20.952;2023-05-07T02:06:24;3.93;;;2.70;;
17283;SDS011;8760;52.248;20.952;2023-05-07T02:08:51;4.47;;;3.10;;
17283;SDS011;8760;52.248;20.952;2023-05-07T02:11:18;6.10;;;2.87;;
17283;SDS011;8760;52.248;20.952;2023-05-07T02:13:45;5.07;;;3.03;;
17283;SDS011;8760;52.248;20.952;2023-05-07T02:16:13;6.07;;;3.77;;
17283;SDS011;8760;52.248;20.952;2023-05-07T02:18:40;4.47;;;2.83;;
17283;SDS011;8760;52.248;20.952;2023-05-07T02:21:07;3.20;;;2.90;;
17283;SDS011;8760;52.248;20.952;2023-05-07T02:23:34;4.53;;;2.80;;
17283;SDS011;8760;52.248;20.952;2023-05-07T02:26:01;4.43;;;2.90;;
17283;SDS011;8760;52.248;20.952;2023-05-07T02:28:28;2.80;;;2.50;;
17283;SDS011;8760;52.248;20.952;2023-05-07T02:30:54;3.70;;;3.00;;
17283;SDS011;8760;52.248;20.952;2023-05-07T02:33:24;3.23;;;2.90;;
17283;SDS011;8760;52.248;20.952;2023-05-07T02:35:51;3.60;;;2.50;;
17283;SDS011;8760;52.248;20.952;2023-05-07T02:38:18;3.43;;;2.73;;
17283;SDS011;8760;52.248;20.952;2023-05-07T02:40:45;5.30;;;2.70;;
17283;SDS011;8760;52.248;20.952;2023-05-07T02:43:12;3.43;;;2.57;;
17283;SDS011;8760;52.248;20.952;2023-05-07T02:45:38;3.73;;;2.47;;
17283;SDS011;8760;52.248;20.952;2023-05-07T02:48:05;4.63;;;2.63;;
17283;SDS011;8760;52.248;20.952;2023-05-07T02:50:34;3.73;;;2.80;;
17283;SDS011;8760;52.248;20.952;2023-05-07T02:53:00;3.80;;;2.93;;
17283;SDS011;8760;52.248;20.952;2023-05-07T02:55:27;3.87;;;2.83;;
17283;SDS011;8760;52.248;20.952;2023-05-07T02:57:54;3.57;;;3.03;;
17283;SDS011;8760;52.248;20.952;2023-05-07T03:00:21;3.37;;;2.73;;
17283;SDS011;8760;52.248;20.952;2023-05-07T03:02:50;2.97;;;2.50;;
17283;SDS011;8760;52.248;20.952;2023-05-07T03:05:16;3.00;;;2.70;;
17283;SDS011;8760;52.248;20.952;2023-05-07T03:07:45;3.83;;;3.07;;
17283;SDS011;8760;52.248;20.952;2023-05-07T03:10:12;3.97;;;2.80;;
17283;SDS011;8760;52.248;20.952;2023-05-07T03:12:39;3.20;;;2.80;;
17283;SDS011;8760;52.248;20.952;2023-05-07T03:15:06;2.97;;;2.67;;
17283;SDS011;8760;52.248;20.952;2023-05-07T03:17:34;3.53;;;2.73;;
17283;SDS011;8760;52.248;20.952;2023-05-07T03:20:01;3.57;;;2.87;;
17283;SDS011;8760;52.248;20.952;2023-05-07T03:22:29;4.00;;;2.60;;
17283;SDS011;8760;52.248;20.952;2023-05-07T03:24:57;2.73;;;2.50;;
17283;SDS011;8760;52.248;20.952;2023-05-07T03:27:24;2.87;;;2.57;;
17283;SDS011;8760;52.248;20.952;2023-05-07T03:29:51;4.20;;;2.80;;
17283;SDS011;8760;52.248;20.952;2023-05-07T03:32:18;3.37;;;2.17;;
17283;SDS011;8760;52.248;20.952;2023-05-07T03:34:45;3.40;;;2.80;;
17283;SDS011;8760;52.248;20.952;2023-05-07T03:37:12;4.77;;;2.93;;
17283;SDS011;8760;52.248;20.952;2023-05-07T03:39:38;2.67;;;2.47;;
17283;SDS011;8760;52.248;20.952;2023-05-07T03:42:07;3.27;;;2.30;;
17283;SDS011;8760;52.248;20.952;2023-05-07T03:44:34;3.97;;;2.70;;
17283;SDS011;8760;52.248;20.952;2023-05-07T03:47:01;3.20;;;2.37;;
17283;SDS011;8760;52.248;20.952;2023-05-07T03:49:28;3.50;;;2.37;;
17283;SDS011;8760;52.248;20.952;2023-05-07T03:51:55;3.30;;;2.67;;
17283;SDS011;8760;52.248;20.952;2023-05-07T03:54:22;4.07;;;2.70;;
17283;SDS011;8760;52.248;20.952;2023-05-07T03:56:49;2.73;;;2.40;;
17283;SDS011;8760;52.248;20.952;2023-05-07T03:59:17;4.53;;;2.70;;
17283;SDS011;8760;52.248;20.952;2023-05-07T04:01:44;2.77;;;2.27;;
17283;SDS011;8760;52.248;20.952;2023-05-07T04:04:11;3.63;;;2.47;;
17283;SDS011;8760;52.248;20.952;2023-05-07T04:06:38;2.80;;;2.50;;
17283;SDS011;8760;52.248;20.952;2023-05-07T04:09:05;2.47;;;2.23;;
17283;SDS011;8760;52.248;20.952;2023-05-07T04:11:33;4.10;;;2.47;;
17283;SDS011;8760;52.248;20.952;2023-05-07T04:14:00;4.23;;;2.23;;
17283;SDS011;8760;52.248;20.952;2023-05-07T04:16:29;4.40;;;2.43;;
17283;SDS011;8760;52.248;20.952;2023-05-07T04:18:56;3.30;;;2.40;;
17283;SDS011;8760;52.248;20.952;2023-05-07T04:21:22;3.90;;;2.90;;
17283;SDS011;8760;52.248;20.952;2023-05-07T04:23:50;2.60;;;2.30;;
17283;SDS011;8760;52.248;20.952;2023-05-07T04:26:17;5.63;;;2.57;;
17283;SDS011;8760;52.248;20.952;2023-05-07T04:28:46;3.13;;;2.83;;
17283;SDS011;8760;52.248;20.952;2023-05-07T04:31:13;3.20;;;2.60;;
17283;SDS011;8760;52.248;20.952;2023-05-07T04:33:41;4.10;;;2.87;;
17283;SDS011;8760;52.248;20.952;2023-05-07T04:36:08;3.70;;;2.70;;
17283;SDS011;8760;52.248;20.952;2023-05-07T04:38:35;3.37;;;2.40;;
17283;SDS011;8760;52.248;20.952;2023-05-07T04:41:03;4.27;;;3.07;;
17283;SDS011;8760;52.248;20.952;2023-05-07T04:43:31;4.00;;;2.70;;
17283;SDS011;8760;52.248;20.952;2023-05-07T04:45:58;3.97;;;2.63;;
17283;SDS011;8760;52.248;20.952;2023-05-07T04:48:25;4.07;;;2.70;;
17283;SDS011;8760;52.248;20.952;2023-05-07T04:50:55;3.03;;;2.73;;
17283;SDS011;8760;52.248;20.952;2023-05-07T04:53:21;3.47;;;2.70;;
17283;SDS011;8760;52.248;20.952;2023-05-07T04:55:48;4.20;;;2.67;;
17283;SDS011;8760;52.248;20.952;2023-05-07T04:58:20;2.43;;;2.23;;
17283;SDS011;8760;52.248;20.952;2023-05-07T05:00:47;3.83;;;2.53;;
17283;SDS011;8760;52.248;20.952;2023-05-07T05:03:14;2.90;;;2.30;;
17283;SDS011;8760;52.248;20.952;2023-05-07T05:05:41;2.97;;;2.40;;
17283;SDS011;8760;52.248;20.952;2023-05-07T05:08:09;3.70;;;2.60;;
17283;SDS011;8760;52.248;20.952;2023-05-07T05:10:36;7.93;;;2.93;;
17283;SDS011;8760;52.248;20.952;2023-05-07T05:13:03;3.97;;;2.80;;
17283;SDS011;8760;52.248;20.952;2023-05-07T05:15:30;3.00;;;2.70;;
17283;SDS011;8760;52.248;20.952;2023-05-07T05:17:56;2.37;;;2.17;;
17283;SDS011;8760;52.248;20.952;2023-05-07T05:20:23;3.77;;;2.60;;
17283;SDS011;8760;52.248;20.952;2023-05-07T05:22:50;2.60;;;2.10;;
17283;SDS011;8760;52.248;20.952;2023-05-07T05:25:19;3.30;;;2.53;;
17283;SDS011;8760;52.248;20.952;2023-05-07T05:27:46;3.87;;;2.73;;
17283;SDS011;8760;52.248;20.952;2023-05-07T05:30:14;4.17;;;2.13;;
17283;SDS011;8760;52.248;20.952;2023-05-07T05:32:40;3.77;;;2.27;;
17283;SDS011;8760;52.248;20.952;2023-05-07T05:35:08;3.40;;;2.37;;
17283;SDS011;8760;52.248;20.952;2023-05-07T05:37:36;2.53;;;2.33;;
17283;SDS011;8760;52.248;20.952;2023-05-07T05:40:03;3.87;;;2.57;;
17283;SDS011;8760;52.248;20.952;2023-05-07T05:42:32;4.33;;;2.87;;
17283;SDS011;8760;52.248;20.952;2023-05-07T05:44:59;3.67;;;2.17;;
17283;SDS011;8760;52.248;20.952;2023-05-07T05:47:26;2.43;;;2.23;;
17283;SDS011;8760;52.248;20.952;2023-05-07T05:49:53;4.43;;;2.30;;
17283;SDS011;8760;52.248;20.952;2023-05-07T05:52:20;2.40;;;2.20;;
17283;SDS011;8760;52.248;20.952;2023-05-07T05:54:48;2.10;;;1.90;;
17283;SDS011;8760;52.248;20.952;2023-05-07T05:57:15;2.50;;;1.87;;
17283;SDS011;8760;52.248;20.952;2023-05-07T05:59:44;2.03;;;1.83;;
17283;SDS011;8760;52.248;20.952;2023-05-07T06:02:12;2.97;;;2.30;;
17283;SDS011;8760;52.248;20.952;2023-05-07T06:04:39;2.00;;;1.80;;
17283;SDS011;8760;52.248;20.952;2023-05-07T06:07:07;2.27;;;1.90;;
17283;SDS011;8760;52.248;20.952;2023-05-07T06:09:34;2.67;;;1.80;;
17283;SDS011;8760;52.248;20.952;2023-05-07T06:12:01;2.27;;;2.07;;
17283;SDS011;8760;52.248;20.952;2023-05-07T06:14:28;3.83;;;2.23;;
17283;SDS011;8760;52.248;20.952;2023-05-07T06:16:56;2.70;;;2.00;;
17283;SDS011;8760;52.248;20.952;2023-05-07T06:19:23;2.30;;;2.03;;
17283;SDS011;8760;52.248;20.952;2023-05-07T06:21:51;2.80;;;1.90;;
17283;SDS011;8760;52.248;20.952;2023-05-07T06:24:18;1.80;;;1.70;;
17283;SDS011;8760;52.248;20.952;2023-05-07T06:26:45;3.47;;;1.97;;
17283;SDS011;8760;52.248;20.952;2023-05-07T06:29:12;2.03;;;1.83;;
17283;SDS011;8760;52.248;20.952;2023-05-07T06:31:39;2.87;;;2.10;;
17283;SDS011;8760;52.248;20.952;2023-05-07T06:34:07;3.43;;;2.50;;
17283;SDS011;8760;52.248;20.952;2023-05-07T06:36:35;1.67;;;1.57;;
17283;SDS011;8760;52.248;20.952;2023-05-07T06:39:02;2.40;;;1.97;;
17283;SDS011;8760;52.248;20.952;2023-05-07T06:41:28;1.57;;;1.47;;
17283;SDS011;8760;52.248;20.952;2023-05-07T06:43:55;3.27;;;2.03;;
17283;SDS011;8760;52.248;20.952;2023-05-07T06:46:22;3.40;;;2.07;;
17283;SDS011;8760;52.248;20.952;2023-05-07T06:48:49;3.40;;;2.20;;
17283;SDS011;8760;52.248;20.952;2023-05-07T06:51:18;3.73;;;2.27;;
17283;SDS011;8760;52.248;20.952;2023-05-07T06:53:45;2.77;;;2.23;;
17283;SDS011;8760;52.248;20.952;2023-05-07T06:56:12;3.80;;;2.83;;
17283;SDS011;8760;52.248;20.952;2023-05-07T06:58:39;3.97;;;2.53;;
17283;SDS011;8760;52.248;20.952;2023-05-07T07:01:06;4.37;;;2.97;;
17283;SDS011;8760;52.248;20.952;2023-05-07T07:03:33;2.97;;;2.60;;
17283;SDS011;8760;52.248;20.952;2023-05-07T07:06:00;2.37;;;2.10;;
17283;SDS011;8760;52.248;20.952;2023-05-07T07:08:29;2.13;;;1.93;;
17283;SDS011;8760;52.248;20.952;2023-05-07T07:10:55;1.97;;;1.83;;
17283;SDS011;8760;52.248;20.952;2023-05-07T07:13:22;1.80;;;1.70;;
17283;SDS011;8760;52.248;20.952;2023-05-07T07:15:49;2.13;;;2.00;;
17283;SDS011;8760;52.248;20.952;2023-05-07T07:18:16;2.47;;;1.97;;
17283;SDS011;8760;52.248;20.952;2023-05-07T07:20:43;2.27;;;2.07;;
17283;SDS011;8760;52.248;20.952;2023-05-07T07:23:10;2.63;;;1.90;;
17283;SDS011;8760;52.248;20.952;2023-05-07T07:25:39;2.73;;;2.10;;
17283;SDS011;8760;52.248;20.952;2023-05-07T07:28:05;2.73;;;2.07;;
17283;SDS011;8760;52.248;20.952;2023-05-07T07:30:32;1.77;;;1.63;;
17283;SDS011;8760;52.248;20.952;2023-05-07T07:32:59;3.03;;;1.73;;
17283;SDS011;8760;52.248;20.952;2023-05-07T07:35:28;3.93;;;1.97;;
17283;SDS011;8760;52.248;20.952;2023-05-07T07:37:55;2.60;;;2.27;;
17283;SDS011;8760;52.248;20.952;2023-05-07T07:40:21;2.40;;;2.07;;
17283;SDS011;8760;52.248;20.952;2023-05-07T07:42:50;3.70;;;2.23;;
17283;SDS011;8760;52.248;20.952;2023-05-07T07:45:17;3.63;;;1.87;;
17283;SDS011;8760;52.248;20.952;2023-05-07T07:47:44;4.13;;;2.10;;
17283;SDS011;8760;52.248;20.952;2023-05-07T07:50:11;2.60;;;1.77;;
17283;SDS011;8760;52.248;20.952;2023-05-07T07:52:38;5.77;;;2.17;;
17283;SDS011;8760;52.248;20.952;2023-05-07T07:55:06;4.80;;;1.60;;
17283;SDS011;8760;52.248;20.952;2023-05-07T07:57:33;3.47;;;2.17;;
17283;SDS011;8760;52.248;20.952;2023-05-07T08:00:02;2.40;;;1.90;;
17283;SDS011;8760;52.248;20.952;2023-05-07T08:02:30;2.10;;;1.73;;
17283;SDS011;8760;52.248;20.952;2023-05-07T08:04:57;2.03;;;1.63;;
17283;SDS011;8760;52.248;20.952;2023-05-07T08:07:24;3.47;;;2.10;;
17283;SDS011;8760;52.248;20.952;2023-05-07T08:09:51;2.00;;;1.80;;
17283;SDS011;8760;52.248;20.952;2023-05-07T08:12:18;4.97;;;1.77;;
17283;SDS011;8760;52.248;20.952;2023-05-07T08:14:45;3.60;;;1.80;;
17283;SDS011;8760;52.248;20.952;2023-05-07T08:17:13;2.03;;;1.67;;
17283;SDS011;8760;52.248;20.952;2023-05-07T08:19:41;4.20;;;1.80;;
17283;SDS011;8760;52.248;20.952;2023-05-07T08:22:08;3.33;;;1.53;;
17283;SDS011;8760;52.248;20.952;2023-05-07T08:24:35;3.53;;;1.97;;
17283;SDS011;8760;52.248;20.952;2023-05-07T08:27:02;2.33;;;1.90;;
17283;SDS011;8760;52.248;20.952;2023-05-07T08:29:29;2.20;;;1.83;;
17283;SDS011;8760;52.248;20.952;2023-05-07T08:31:56;2.57;;;1.70;;
17283;SDS011;8760;52.248;20.952;2023-05-07T08:34:25;2.70;;;1.70;;
17283;SDS011;8760;52.248;20.952;2023-05-07T08:36:51;1.80;;;1.70;;
17283;SDS011;8760;52.248;20.952;2023-05-07T08:39:18;1.70;;;1.60;;
17283;SDS011;8760;52.248;20.952;2023-05-07T08:41:45;3.97;;;1.60;;
17283;SDS011;8760;52.248;20.952;2023-05-07T08:44:14;3.37;;;1.87;;
17283;SDS011;8760;52.248;20.952;2023-05-07T08:46:43;3.30;;;1.80;;
17283;SDS011;8760;52.248;20.952;2023-05-07T08:49:13;1.50;;;1.40;;
17283;SDS011;8760;52.248;20.952;2023-05-07T08:51:42;5.60;;;2.13;;
17283;SDS011;8760;52.248;20.952;2023-05-07T08:54:09;5.93;;;1.90;;
17283;SDS011;8760;52.248;20.952;2023-05-07T08:56:37;4.73;;;2.13;;
17283;SDS011;8760;52.248;20.952;2023-05-07T08:59:05;1.70;;;1.60;;
17283;SDS011;8760;52.248;20.952;2023-05-07T09:01:32;4.37;;;2.10;;
17283;SDS011;8760;52.248;20.952;2023-05-07T09:04:00;5.17;;;2.13;;
17283;SDS011;8760;52.248;20.952;2023-05-07T09:06:28;1.70;;;1.57;;
17283;SDS011;8760;52.248;20.952;2023-05-07T09:08:56;2.30;;;1.40;;
17283;SDS011;8760;52.248;20.952;2023-05-07T09:11:26;2.07;;;1.60;;
17283;SDS011;8760;52.248;20.952;2023-05-07T09:13:53;3.83;;;1.80;;
17283;SDS011;8760;52.248;20.952;2023-05-07T09:16:23;1.57;;;1.47;;
17283;SDS011;8760;52.248;20.952;2023-05-07T09:18:50;3.30;;;1.83;;
17283;SDS011;8760;52.248;20.952;2023-05-07T09:21:19;3.67;;;1.77;;
17283;SDS011;8760;52.248;20.952;2023-05-07T09:23:47;2.43;;;1.63;;
17283;SDS011;8760;52.248;20.952;2023-05-07T09:26:19;3.23;;;1.70;;
17283;SDS011;8760;52.248;20.952;2023-05-07T09:28:47;1.87;;;1.63;;
17283;SDS011;8760;52.248;20.952;2023-05-07T09:31:14;1.90;;;1.53;;
17283;SDS011;8760;52.248;20.952;2023-05-07T09:33:42;2.57;;;1.43;;
17283;SDS011;8760;52.248;20.952;2023-05-07T09:36:09;2.70;;;1.40;;
17283;SDS011;8760;52.248;20.952;2023-05-07T09:38:36;3.67;;;1.53;;
17283;SDS011;8760;52.248;20.952;2023-05-07T09:41:04;2.17;;;1.50;;
17283;SDS011;8760;52.248;20.952;2023-05-07T09:43:34;1.93;;;1.50;;
17283;SDS011;8760;52.248;20.952;2023-05-07T09:46:06;5.63;;;1.60;;
17283;SDS011;8760;52.248;20.952;2023-05-07T09:48:35;1.57;;;1.47;;
17283;SDS011;8760;52.248;20.952;2023-05-07T09:51:06;2.73;;;1.30;;
17283;SDS011;8760;52.248;20.952;2023-05-07T09:53:40;1.77;;;1.50;;
17283;SDS011;8760;52.248;20.952;2023-05-07T09:56:10;1.90;;;1.70;;
17283;SDS011;8760;52.248;20.952;2023-05-07T09:58:40;1.50;;;1.37;;
17283;SDS011;8760;52.248;20.952;2023-05-07T10:01:08;3.80;;;1.40;;
17283;SDS011;8760;52.248;20.952;2023-05-07T10:03:37;2.17;;;1.60;;
17283;SDS011;8760;52.248;20.952;2023-05-07T10:06:08;3.90;;;1.50;;
17283;SDS011;8760;52.248;20.952;2023-05-07T10:08:35;4.93;;;1.60;;
17283;SDS011;8760;52.248;20.952;2023-05-07T10:11:03;2.57;;;1.30;;
17283;SDS011;8760;52.248;20.952;2023-05-07T10:13:30;1.63;;;1.40;;
17283;SDS011;8760;52.248;20.952;2023-05-07T10:15:59;5.23;;;1.40;;
17283;SDS011;8760;52.248;20.952;2023-05-07T10:18:27;1.30;;;1.20;;
17283;SDS011;8760;52.248;20.952;2023-05-07T10:20:58;3.33;;;1.40;;
17283;SDS011;8760;52.248;20.952;2023-05-07T10:23:31;4.57;;;1.90;;
17283;SDS011;8760;52.248;20.952;2023-05-07T10:25:59;2.73;;;1.50;;
17283;SDS011;8760;52.248;20.952;2023-05-07T10:28:28;2.00;;;1.40;;
17283;SDS011;8760;52.248;20.952;2023-05-07T10:31:01;3.33;;;1.50;;
17283;SDS011;8760;52.248;20.952;2023-05-07T10:33:36;4.00;;;1.17;;
17283;SDS011;8760;52.248;20.952;2023-05-07T10:36:05;1.80;;;1.30;;
17283;SDS011;8760;52.248;20.952;2023-05-07T10:38:33;1.80;;;1.37;;
17283;SDS011;8760;52.248;20.952;2023-05-07T10:41:00;3.43;;;1.50;;
17283;SDS011;8760;52.248;20.952;2023-05-07T10:43:38;2.50;;;1.30;;
17283;SDS011;8760;52.248;20.952;2023-05-07T10:46:11;3.67;;;1.30;;
17283;SDS011;8760;52.248;20.952;2023-05-07T10:51:41;1.73;;;1.30;;
17283;SDS011;8760;52.248;20.952;2023-05-07T10:54:18;2.60;;;1.40;;
17283;SDS011;8760;52.248;20.952;2023-05-07T10:56:45;1.63;;;1.37;;
17283;SDS011;8760;52.248;20.952;2023-05-07T10:59:31;4.50;;;1.40;;
17283;SDS011;8760;52.248;20.952;2023-05-07T11:02:08;1.30;;;1.20;;
17283;SDS011;8760;52.248;20.952;2023-05-07T11:04:40;2.37;;;1.30;;
17283;SDS011;8760;52.248;20.952;2023-05-07T11:07:19;1.90;;;1.43;;
17283;SDS011;8760;52.248;20.952;2023-05-07T11:09:54;1.50;;;1.40;;
17283;SDS011;8760;52.248;20.952;2023-05-07T11:15:32;1.20;;;1.10;;
17283;SDS011;8760;52.248;20.952;2023-05-07T11:18:05;1.60;;;1.50;;
17283;SDS011;8760;52.248;20.952;2023-05-07T11:20:45;3.00;;;1.60;;
17283;SDS011;8760;52.248;20.952;2023-05-07T11:26:21;2.17;;;1.53;;
17283;SDS011;8760;52.248;20.952;2023-05-07T11:28:48;2.50;;;1.70;;
17283;SDS011;8760;52.248;20.952;2023-05-07T11:31:17;3.73;;;1.60;;
17283;SDS011;8760;52.248;20.952;2023-05-07T11:33:49;2.27;;;1.40;;
17283;SDS011;8760;52.248;20.952;2023-05-07T11:36:17;3.07;;;1.60;;
17283;SDS011;8760;52.248;20.952;2023-05-07T11:38:45;1.83;;;1.50;;
17283;SDS011;8760;52.248;20.952;2023-05-07T11:41:12;2.37;;;1.30;;
17283;SDS011;8760;52.248;20.952;2023-05-07T11:43:53;1.97;;;1.30;;
17283;SDS011;8760;52.248;20.952;2023-05-07T11:46:24;1.70;;;1.30;;
17283;SDS011;8760;52.248;20.952;2023-05-07T11:48:52;2.03;;;1.60;;
17283;SDS011;8760;52.248;20.952;2023-05-07T11:51:20;1.77;;;1.23;;
17283;SDS011;8760;52.248;20.952;2023-05-07T11:53:48;2.10;;;1.40;;
17283;SDS011;8760;52.248;20.952;2023-05-07T11:56:16;3.77;;;1.40;;
17283;SDS011;8760;52.248;20.952;2023-05-07T11:58:45;2.60;;;1.63;;
17283;SDS011;8760;52.248;20.952;2023-05-07T12:01:13;3.20;;;1.60;;
17283;SDS011;8760;52.248;20.952;2023-05-07T12:03:42;1.20;;;1.10;;
17283;SDS011;8760;52.248;20.952;2023-05-07T12:06:12;2.27;;;1.37;;
17283;SDS011;8760;52.248;20.952;2023-05-07T12:08:41;2.97;;;1.57;;
17283;SDS011;8760;52.248;20.952;2023-05-07T12:11:09;1.77;;;1.40;;
17283;SDS011;8760;52.248;20.952;2023-05-07T12:13:39;1.43;;;1.20;;
17283;SDS011;8760;52.248;20.952;2023-05-07T12:16:07;1.20;;;1.10;;
17283;SDS011;8760;52.248;20.952;2023-05-07T12:18:34;4.97;;;1.53;;
17283;SDS011;8760;52.248;20.952;2023-05-07T12:21:02;3.30;;;1.47;;
17283;SDS011;8760;52.248;20.952;2023-05-07T12:23:32;2.63;;;1.37;;
17283;SDS011;8760;52.248;20.952;2023-05-07T12:26:00;1.67;;;1.10;;
17283;SDS011;8760;52.248;20.952;2023-05-07T12:28:27;1.70;;;1.47;;
17283;SDS011;8760;52.248;20.952;2023-05-07T12:30:55;1.80;;;1.20;;
17283;SDS011;8760;52.248;20.952;2023-05-07T12:33:24;2.43;;;1.50;;
17283;SDS011;8760;52.248;20.952;2023-05-07T12:35:54;1.30;;;1.20;;
17283;SDS011;8760;52.248;20.952;2023-05-07T12:38:21;1.50;;;1.20;;
17283;SDS011;8760;52.248;20.952;2023-05-07T12:40:50;1.67;;;1.20;;
17283;SDS011;8760;52.248;20.952;2023-05-07T12:43:20;1.90;;;1.40;;
17283;SDS011;8760;52.248;20.952;2023-05-07T12:45:48;1.40;;;1.27;;
17283;SDS011;8760;52.248;20.952;2023-05-07T12:48:16;1.30;;;1.20;;
17283;SDS011;8760;52.248;20.952;2023-05-07T12:50:43;1.40;;;1.30;;
17283;SDS011;8760;52.248;20.952;2023-05-07T12:53:11;1.97;;;1.10;;
17283;SDS011;8760;52.248;20.952;2023-05-07T12:55:40;3.13;;;1.30;;
17283;SDS011;8760;52.248;20.952;2023-05-07T12:58:10;1.97;;;1.20;;
17283;SDS011;8760;52.248;20.952;2023-05-07T13:00:42;1.20;;;1.10;;
17283;SDS011;8760;52.248;20.952;2023-05-07T13:03:09;1.43;;;1.33;;
17283;SDS011;8760;52.248;20.952;2023-05-07T13:05:36;1.30;;;1.20;;
17283;SDS011;8760;52.248;20.952;2023-05-07T13:08:04;2.13;;;1.40;;
17283;SDS011;8760;52.248;20.952;2023-05-07T13:10:30;3.00;;;1.53;;
17283;SDS011;8760;52.248;20.952;2023-05-07T13:12:59;1.63;;;1.40;;
17283;SDS011;8760;52.248;20.952;2023-05-07T13:15:27;1.47;;;1.27;;
17283;SDS011;8760;52.248;20.952;2023-05-07T13:17:54;1.43;;;1.27;;
17283;SDS011;8760;52.248;20.952;2023-05-07T13:20:21;2.97;;;1.13;;
17283;SDS011;8760;52.248;20.952;2023-05-07T13:22:48;2.13;;;1.23;;
17283;SDS011;8760;52.248;20.952;2023-05-07T13:25:15;1.30;;;1.20;;
17283;SDS011;8760;52.248;20.952;2023-05-07T13:27:42;1.40;;;1.10;;
17283;SDS011;8760;52.248;20.952;2023-05-07T13:30:09;2.97;;;1.30;;
17283;SDS011;8760;52.248;20.952;2023-05-07T13:32:37;2.17;;;1.23;;
17283;SDS011;8760;52.248;20.952;2023-05-07T13:35:05;2.40;;;1.30;;
17283;SDS011;8760;52.248;20.952;2023-05-07T13:37:32;2.03;;;1.30;;
17283;SDS011;8760;52.248;20.952;2023-05-07T13:39:59;1.53;;;1.30;;
17283;SDS011;8760;52.248;20.952;2023-05-07T13:42:26;1.10;;;1.03;;
17283;SDS011;8760;52.248;20.952;2023-05-07T13:44:53;1.73;;;1.10;;
17283;SDS011;8760;52.248;20.952;2023-05-07T13:47:20;1.20;;;1.10;;
17283;SDS011;8760;52.248;20.952;2023-05-07T13:49:48;2.60;;;1.20;;
17283;SDS011;8760;52.248;20.952;2023-05-07T13:52:15;2.73;;;1.10;;
17283;SDS011;8760;52.248;20.952;2023-05-07T13:54:42;1.50;;;1.40;;
17283;SDS011;8760;52.248;20.952;2023-05-07T13:57:09;1.43;;;1.13;;
17283;SDS011;8760;52.248;20.952;2023-05-07T13:59:36;2.23;;;1.60;;
17283;SDS011;8760;52.248;20.952;2023-05-07T14:02:03;1.50;;;1.10;;
17283;SDS011;8760;52.248;20.952;2023-05-07T14:04:30;1.87;;;1.27;;
17283;SDS011;8760;52.248;20.952;2023-05-07T14:06:58;2.17;;;1.30;;
17283;SDS011;8760;52.248;20.952;2023-05-07T14:09:25;1.40;;;1.00;;
17283;SDS011;8760;52.248;20.952;2023-05-07T14:11:52;1.43;;;1.30;;
17283;SDS011;8760;52.248;20.952;2023-05-07T14:14:19;2.33;;;1.20;;
17283;SDS011;8760;52.248;20.952;2023-05-07T14:16:46;1.60;;;1.30;;
17283;SDS011;8760;52.248;20.952;2023-05-07T14:19:13;3.47;;;1.10;;
17283;SDS011;8760;52.248;20.952;2023-05-07T14:21:39;1.30;;;1.20;;
17283;SDS011;8760;52.248;20.952;2023-05-07T14:24:08;2.33;;;1.30;;
17283;SDS011;8760;52.248;20.952;2023-05-07T14:26:35;2.10;;;1.30;;
17283;SDS011;8760;52.248;20.952;2023-05-07T14:29:02;3.10;;;1.37;;
17283;SDS011;8760;52.248;20.952;2023-05-07T14:31:29;2.57;;;1.00;;
17283;SDS011;8760;52.248;20.952;2023-05-07T14:33:56;3.93;;;1.30;;
17283;SDS011;8760;52.248;20.952;2023-05-07T14:36:24;2.47;;;1.67;;
17283;SDS011;8760;52.248;20.952;2023-05-07T14:38:56;1.43;;;1.30;;
17283;SDS011;8760;52.248;20.952;2023-05-07T14:41:25;1.20;;;1.10;;
17283;SDS011;8760;52.248;20.952;2023-05-07T14:43:52;1.57;;;1.40;;
17283;SDS011;8760;52.248;20.952;2023-05-07T14:46:19;2.40;;;1.37;;
17283;SDS011;8760;52.248;20.952;2023-05-07T14:48:46;3.70;;;1.70;;
17283;SDS011;8760;52.248;20.952;2023-05-07T14:51:13;2.23;;;1.40;;
17283;SDS011;8760;52.248;20.952;2023-05-07T14:53:40;2.10;;;1.50;;
17283;SDS011;8760;52.248;20.952;2023-05-07T14:56:07;3.00;;;1.67;;
17283;SDS011;8760;52.248;20.952;2023-05-07T14:58:36;3.40;;;1.47;;
17283;SDS011;8760;52.248;20.952;2023-05-07T15:01:03;1.70;;;1.60;;